sensor_id;sensor_type;location;lat;lon;timestamp;pressure;altitude;pressure_sealevel;temperature;humidity
75886;BME280;64561;44.018;10.144;2023-07-20T00:00:07;100894.63;;;25.65;77.03
75886;BME280;64561;44.018;10.144;2023-07-20T00:02:41;100886.78;;;25.65;77.55
75886;BME280;64561;44.018;10.144;2023-07-20T00:05:08;100886.81;;;25.63;77.66
75886;BME280;64561;44.018;10.144;2023-07-20T00:07:35;100871.28;;;25.59;78.03
75886;BME280;64561;44.018;10.144;2023-07-20T00:10:02;100868.41;;;25.65;78.30
75886;BME280;64561;44.018;10.144;2023-07-20T00:12:30;100871.03;;;25.65;78.47
75886;BME280;64561;44.018;10.144;2023-07-20T00:14:57;100870.13;;;25.66;78.37
75886;BME280;64561;44.018;10.144;2023-07-20T00:17:24;100866.72;;;25.64;78.39
75886;BME280;64561;44.018;10.144;2023-07-20T00:19:51;100872.09;;;25.61;78.75
75886;BME280;64561;44.018;10.144;2023-07-20T00:22:18;100882.56;;;25.61;78.37
75886;BME280;64561;44.018;10.144;2023-07-20T00:24:45;100880.09;;;25.56;78.51
75886;BME280;64561;44.018;10.144;2023-07-20T00:27:13;100875.81;;;25.53;78.70
75886;BME280;64561;44.018;10.144;2023-07-20T00:29:40;100871.44;;;25.54;78.87
75886;BME280;64561;44.018;10.144;2023-07-20T00:32:08;100863.56;;;25.54;78.95
75886;BME280;64561;44.018;10.144;2023-07-20T00:34:35;100868.81;;;25.54;79.02
75886;BME280;64561;44.018;10.144;2023-07-20T00:37:02;100869.84;;;25.50;78.62
75886;BME280;64561;44.018;10.144;2023-07-20T00:39:30;100863.19;;;25.41;79.19
75886;BME280;64561;44.018;10.144;2023-07-20T00:41:58;100861.72;;;25.34;79.48
75886;BME280;64561;44.018;10.144;2023-07-20T00:44:25;100870.75;;;25.25;79.64
75886;BME280;64561;44.018;10.144;2023-07-20T00:46:52;100875.03;;;25.28;79.81
75886;BME280;64561;44.018;10.144;2023-07-20T00:49:20;100875.88;;;25.28;79.80
75886;BME280;64561;44.018;10.144;2023-07-20T00:51:48;100873.09;;;25.33;80.13
75886;BME280;64561;44.018;10.144;2023-07-20T00:54:16;100858.97;;;25.37;80.24
75886;BME280;64561;44.018;10.144;2023-07-20T00:56:44;100872.00;;;25.39;79.86
75886;BME280;64561;44.018;10.144;2023-07-20T00:59:13;100880.16;;;25.31;80.44
75886;BME280;64561;44.018;10.144;2023-07-20T01:01:40;100876.50;;;25.35;80.54
75886;BME280;64561;44.018;10.144;2023-07-20T01:04:08;100871.13;;;25.40;80.84
75886;BME280;64561;44.018;10.144;2023-07-20T01:14:41;100846.34;;;25.48;81.94
75886;BME280;64561;44.018;10.144;2023-07-20T01:17:08;100850.53;;;25.52;82.40
75886;BME280;64561;44.018;10.144;2023-07-20T01:19:36;100858.28;;;25.55;82.42
75886;BME280;64561;44.018;10.144;2023-07-20T01:22:35;100859.81;;;25.61;82.43
75886;BME280;64561;44.018;10.144;2023-07-20T01:33:16;100852.56;;;25.68;82.43
75886;BME280;64561;44.018;10.144;2023-07-20T01:35:48;100849.16;;;25.66;82.51
75886;BME280;64561;44.018;10.144;2023-07-20T01:38:18;100855.19;;;25.68;82.43
75886;BME280;64561;44.018;10.144;2023-07-20T01:40:49;100847.34;;;25.68;82.60
75886;BME280;64561;44.018;10.144;2023-07-20T01:43:16;100850.75;;;25.70;82.67
75886;BME280;64561;44.018;10.144;2023-07-20T01:45:44;100861.91;;;25.75;82.49
75886;BME280;64561;44.018;10.144;2023-07-20T01:48:13;100852.34;;;25.74;82.69
75886;BME280;64561;44.018;10.144;2023-07-20T01:50:41;100849.84;;;25.71;82.59
75886;BME280;64561;44.018;10.144;2023-07-20T01:53:09;100849.16;;;25.66;82.11
75886;BME280;64561;44.018;10.144;2023-07-20T01:55:36;100843.13;;;25.64;82.11
75886;BME280;64561;44.018;10.144;2023-07-20T01:58:03;100843.97;;;25.64;82.31
75886;BME280;64561;44.018;10.144;2023-07-20T02:00:30;100844.03;;;25.63;82.17
75886;BME280;64561;44.018;10.144;2023-07-20T02:02:58;100840.75;;;25.58;82.17
75886;BME280;64561;44.018;10.144;2023-07-20T02:05:25;100839.31;;;25.49;82.18
75886;BME280;64561;44.018;10.144;2023-07-20T02:07:53;100839.38;;;25.47;81.92
75886;BME280;64561;44.018;10.144;2023-07-20T02:10:21;100836.81;;;25.46;82.01
75886;BME280;64561;44.018;10.144;2023-07-20T02:12:48;100831.06;;;25.36;80.72
75886;BME280;64561;44.018;10.144;2023-07-20T02:15:17;100838.88;;;25.38;80.89
75886;BME280;64561;44.018;10.144;2023-07-20T02:17:46;100844.84;;;25.41;80.96
75886;BME280;64561;44.018;10.144;2023-07-20T02:20:13;100844.81;;;25.43;80.95
75886;BME280;64561;44.018;10.144;2023-07-20T02:22:40;100849.34;;;25.38;81.20
75886;BME280;64561;44.018;10.144;2023-07-20T02:25:08;100834.72;;;25.32;80.56
75886;BME280;64561;44.018;10.144;2023-07-20T02:27:35;100832.19;;;25.29;80.78
75886;BME280;64561;44.018;10.144;2023-07-20T02:30:04;100837.28;;;25.34;81.09
75886;BME280;64561;44.018;10.144;2023-07-20T02:32:36;100841.75;;;25.30;81.14
75886;BME280;64561;44.018;10.144;2023-07-20T02:35:05;100842.22;;;25.18;80.85
75886;BME280;64561;44.018;10.144;2023-07-20T02:37:33;100842.19;;;25.19;81.20
75886;BME280;64561;44.018;10.144;2023-07-20T02:40:00;100843.44;;;25.07;81.38
75886;BME280;64561;44.018;10.144;2023-07-20T02:42:31;100836.66;;;25.02;81.98
75886;BME280;64561;44.018;10.144;2023-07-20T02:44:59;100840.00;;;25.05;82.03
75886;BME280;64561;44.018;10.144;2023-07-20T02:47:28;100836.44;;;25.08;81.80
75886;BME280;64561;44.018;10.144;2023-07-20T02:49:56;100827.25;;;24.96;82.42
75886;BME280;64561;44.018;10.144;2023-07-20T02:52:23;100822.84;;;24.97;82.46
75886;BME280;64561;44.018;10.144;2023-07-20T02:54:51;100818.50;;;24.97;82.32
75886;BME280;64561;44.018;10.144;2023-07-20T02:57:18;100816.66;;;24.99;82.43
75886;BME280;64561;44.018;10.144;2023-07-20T02:59:46;100810.31;;;25.06;82.82
75886;BME280;64561;44.018;10.144;2023-07-20T03:02:13;100816.31;;;25.08;82.80
75886;BME280;64561;44.018;10.144;2023-07-20T03:04:40;100819.69;;;25.14;82.11
75886;BME280;64561;44.018;10.144;2023-07-20T03:07:07;100813.50;;;25.15;82.47
75886;BME280;64561;44.018;10.144;2023-07-20T03:09:35;100812.72;;;25.13;82.13
75886;BME280;64561;44.018;10.144;2023-07-20T03:12:02;100832.03;;;25.08;81.92
75886;BME280;64561;44.018;10.144;2023-07-20T03:14:31;100838.41;;;25.01;82.60
75886;BME280;64561;44.018;10.144;2023-07-20T03:16:59;100849.81;;;25.00;82.41
75886;BME280;64561;44.018;10.144;2023-07-20T03:19:27;100848.09;;;24.99;82.90
75886;BME280;64561;44.018;10.144;2023-07-20T03:21:55;100844.69;;;24.97;82.89
75886;BME280;64561;44.018;10.144;2023-07-20T03:24:22;100844.81;;;24.94;83.23
75886;BME280;64561;44.018;10.144;2023-07-20T03:26:51;100845.81;;;24.90;83.56
75886;BME280;64561;44.018;10.144;2023-07-20T03:29:18;100848.50;;;24.89;83.57
75886;BME280;64561;44.018;10.144;2023-07-20T03:31:46;100856.34;;;24.89;83.69
75886;BME280;64561;44.018;10.144;2023-07-20T03:34:13;100852.06;;;24.86;83.88
75886;BME280;64561;44.018;10.144;2023-07-20T03:36:42;100846.81;;;24.86;84.30
75886;BME280;64561;44.018;10.144;2023-07-20T03:39:11;100851.44;;;24.79;84.75
75886;BME280;64561;44.018;10.144;2023-07-20T03:41:41;100851.34;;;24.81;84.87
75886;BME280;64561;44.018;10.144;2023-07-20T03:44:10;100849.44;;;24.86;84.58
75886;BME280;64561;44.018;10.144;2023-07-20T03:46:37;100838.06;;;24.87;84.55
75886;BME280;64561;44.018;10.144;2023-07-20T03:49:04;100850.03;;;24.94;84.63
75886;BME280;64561;44.018;10.144;2023-07-20T03:51:33;100857.81;;;24.96;84.75
75886;BME280;64561;44.018;10.144;2023-07-20T03:54:00;100848.19;;;24.96;84.48
75886;BME280;64561;44.018;10.144;2023-07-20T03:56:27;100849.94;;;24.97;84.83
75886;BME280;64561;44.018;10.144;2023-07-20T03:58:54;100849.22;;;24.92;85.23
75886;BME280;64561;44.018;10.144;2023-07-20T04:01:21;100855.28;;;24.94;84.83
75886;BME280;64561;44.018;10.144;2023-07-20T04:03:49;100849.84;;;24.99;84.97
75886;BME280;64561;44.018;10.144;2023-07-20T04:06:16;100856.66;;;25.04;85.38
75886;BME280;64561;44.018;10.144;2023-07-20T04:08:45;100856.53;;;25.07;85.17
75886;BME280;64561;44.018;10.144;2023-07-20T04:11:14;100851.09;;;25.14;84.91
75886;BME280;64561;44.018;10.144;2023-07-20T04:13:42;100842.28;;;25.16;85.00
75886;BME280;64561;44.018;10.144;2023-07-20T04:16:16;100852.59;;;25.21;85.26
75886;BME280;64561;44.018;10.144;2023-07-20T04:18:43;100849.84;;;25.24;85.01
75886;BME280;64561;44.018;10.144;2023-07-20T04:21:10;100848.97;;;25.25;85.10
75886;BME280;64561;44.018;10.144;2023-07-20T04:23:37;100845.38;;;25.27;84.83
75886;BME280;64561;44.018;10.144;2023-07-20T04:26:05;100852.34;;;25.27;84.76
75886;BME280;64561;44.018;10.144;2023-07-20T04:28:33;100846.34;;;25.25;84.59
75886;BME280;64561;44.018;10.144;2023-07-20T04:31:14;100854.09;;;25.28;84.64
75886;BME280;64561;44.018;10.144;2023-07-20T04:33:43;100845.31;;;25.29;84.52
75886;BME280;64561;44.018;10.144;2023-07-20T04:36:10;100843.53;;;25.29;84.50
75886;BME280;64561;44.018;10.144;2023-07-20T04:38:37;100847.88;;;25.30;84.35
75886;BME280;64561;44.018;10.144;2023-07-20T04:41:17;100853.22;;;25.27;83.95
75886;BME280;64561;44.018;10.144;2023-07-20T04:43:47;100857.56;;;25.28;84.63
75886;BME280;64561;44.018;10.144;2023-07-20T04:46:19;100862.94;;;25.24;83.61
75886;BME280;64561;44.018;10.144;2023-07-20T04:48:49;100872.41;;;25.28;84.06
75886;BME280;64561;44.018;10.144;2023-07-20T04:51:17;100863.72;;;25.27;84.22
75886;BME280;64561;44.018;10.144;2023-07-20T04:53:49;100867.09;;;25.29;84.01
75886;BME280;64561;44.018;10.144;2023-07-20T04:56:17;100867.84;;;25.33;84.13
75886;BME280;64561;44.018;10.144;2023-07-20T04:58:44;100864.34;;;25.34;84.61
75886;BME280;64561;44.018;10.144;2023-07-20T05:01:12;100860.63;;;25.40;84.87
75886;BME280;64561;44.018;10.144;2023-07-20T05:03:40;100869.28;;;25.42;85.35
75886;BME280;64561;44.018;10.144;2023-07-20T05:06:09;100869.00;;;25.49;85.56
75886;BME280;64561;44.018;10.144;2023-07-20T05:08:36;100865.41;;;25.52;85.64
75886;BME280;64561;44.018;10.144;2023-07-20T05:11:03;100866.19;;;25.54;85.92
75886;BME280;64561;44.018;10.144;2023-07-20T05:13:30;100869.56;;;25.58;86.13
75886;BME280;64561;44.018;10.144;2023-07-20T05:15:58;100863.41;;;25.59;86.68
75886;BME280;64561;44.018;10.144;2023-07-20T05:18:25;100870.34;;;25.60;86.77
75886;BME280;64561;44.018;10.144;2023-07-20T05:20:52;100872.00;;;25.62;86.59
75886;BME280;64561;44.018;10.144;2023-07-20T05:23:21;100871.97;;;25.64;86.58
75886;BME280;64561;44.018;10.144;2023-07-20T05:25:56;100876.16;;;25.68;86.53
75886;BME280;64561;44.018;10.144;2023-07-20T05:28:24;100872.50;;;25.72;86.39
75886;BME280;64561;44.018;10.144;2023-07-20T05:30:53;100872.34;;;25.76;87.53
75886;BME280;64561;44.018;10.144;2023-07-20T05:33:21;100870.44;;;25.82;87.69
75886;BME280;64561;44.018;10.144;2023-07-20T05:35:48;100872.00;;;25.86;88.07
75886;BME280;64561;44.018;10.144;2023-07-20T05:38:15;100866.69;;;25.87;87.99
75886;BME280;64561;44.018;10.144;2023-07-20T05:40:44;100866.56;;;25.90;87.56
75886;BME280;64561;44.018;10.144;2023-07-20T05:43:12;100863.09;;;25.90;87.97
75886;BME280;64561;44.018;10.144;2023-07-20T05:45:43;100865.69;;;25.91;86.61
75886;BME280;64561;44.018;10.144;2023-07-20T05:48:11;100864.75;;;25.92;85.51
75886;BME280;64561;44.018;10.144;2023-07-20T05:50:43;100872.50;;;25.95;85.79
75886;BME280;64561;44.018;10.144;2023-07-20T05:53:12;100868.88;;;25.99;85.83
75886;BME280;64561;44.018;10.144;2023-07-20T05:55:40;100874.00;;;26.03;85.38
75886;BME280;64561;44.018;10.144;2023-07-20T05:58:07;100875.56;;;26.07;85.61
75886;BME280;64561;44.018;10.144;2023-07-20T06:00:34;100866.78;;;26.08;85.42
75886;BME280;64561;44.018;10.144;2023-07-20T06:03:02;100871.16;;;26.07;84.24
75886;BME280;64561;44.018;10.144;2023-07-20T06:05:30;100874.59;;;26.09;84.31
75886;BME280;64561;44.018;10.144;2023-07-20T06:07:57;100874.50;;;26.11;84.94
75886;BME280;64561;44.018;10.144;2023-07-20T06:10:25;100878.63;;;26.18;85.43
75886;BME280;64561;44.018;10.144;2023-07-20T06:12:53;100882.78;;;26.23;85.01
75886;BME280;64561;44.018;10.144;2023-07-20T06:15:32;100889.50;;;26.29;84.75
75886;BME280;64561;44.018;10.144;2023-07-20T06:18:01;100882.56;;;26.28;83.96
75886;BME280;64561;44.018;10.144;2023-07-20T06:20:28;100892.75;;;26.36;84.75
75886;BME280;64561;44.018;10.144;2023-07-20T06:22:56;100888.28;;;26.38;84.74
75886;BME280;64561;44.018;10.144;2023-07-20T06:25:23;100900.44;;;26.40;84.65
75886;BME280;64561;44.018;10.144;2023-07-20T06:27:50;100895.97;;;26.42;84.05
75886;BME280;64561;44.018;10.144;2023-07-20T06:30:18;100899.47;;;26.43;84.31
75886;BME280;64561;44.018;10.144;2023-07-20T06:32:46;100900.31;;;26.43;83.77
75886;BME280;64561;44.018;10.144;2023-07-20T06:35:13;100904.66;;;26.44;82.83
75886;BME280;64561;44.018;10.144;2023-07-20T06:37:41;100902.03;;;26.44;82.37
75886;BME280;64561;44.018;10.144;2023-07-20T06:40:08;100901.91;;;26.48;81.88
75886;BME280;64561;44.018;10.144;2023-07-20T06:42:41;100900.25;;;26.45;82.21
75886;BME280;64561;44.018;10.144;2023-07-20T06:45:12;100899.25;;;26.49;82.96
75886;BME280;64561;44.018;10.144;2023-07-20T06:47:39;100906.13;;;26.52;81.95
75886;BME280;64561;44.018;10.144;2023-07-20T06:50:07;100909.59;;;26.52;82.19
75886;BME280;64561;44.018;10.144;2023-07-20T06:52:35;100902.53;;;26.54;84.09
75886;BME280;64561;44.018;10.144;2023-07-20T06:55:03;100912.78;;;26.60;84.79
75886;BME280;64561;44.018;10.144;2023-07-20T06:57:32;100907.31;;;26.65;84.38
75886;BME280;64561;44.018;10.144;2023-07-20T06:59:59;100902.88;;;26.67;83.37
75886;BME280;64561;44.018;10.144;2023-07-20T07:02:27;100914.03;;;26.72;83.02
75886;BME280;64561;44.018;10.144;2023-07-20T07:04:54;100914.81;;;26.74;82.75
75886;BME280;64561;44.018;10.144;2023-07-20T07:07:25;100916.53;;;26.75;83.54
75886;BME280;64561;44.018;10.144;2023-07-20T07:09:53;100909.38;;;26.79;83.36
75886;BME280;64561;44.018;10.144;2023-07-20T07:12:20;100914.56;;;26.80;83.35
75886;BME280;64561;44.018;10.144;2023-07-20T07:14:48;100912.59;;;26.85;83.03
75886;BME280;64561;44.018;10.144;2023-07-20T07:17:15;100922.13;;;26.88;83.04
75886;BME280;64561;44.018;10.144;2023-07-20T07:19:45;100918.56;;;26.89;82.66
75886;BME280;64561;44.018;10.144;2023-07-20T07:22:15;100914.03;;;26.92;81.96
75886;BME280;64561;44.018;10.144;2023-07-20T07:24:42;100913.97;;;26.94;81.87
75886;BME280;64561;44.018;10.144;2023-07-20T07:27:09;100916.53;;;26.96;81.67
75886;BME280;64561;44.018;10.144;2023-07-20T07:29:36;100921.53;;;27.02;80.88
75886;BME280;64561;44.018;10.144;2023-07-20T07:32:04;100921.28;;;27.08;80.46
75886;BME280;64561;44.018;10.144;2023-07-20T07:34:31;100925.47;;;27.12;80.45
75886;BME280;64561;44.018;10.144;2023-07-20T07:37:01;100916.56;;;27.16;80.25
75886;BME280;64561;44.018;10.144;2023-07-20T07:39:29;100922.47;;;27.21;80.47
75886;BME280;64561;44.018;10.144;2023-07-20T07:41:59;100926.53;;;27.28;80.33
75886;BME280;64561;44.018;10.144;2023-07-20T07:44:27;100929.09;;;27.30;80.25
75886;BME280;64561;44.018;10.144;2023-07-20T07:46:54;100926.31;;;27.33;80.73
75886;BME280;64561;44.018;10.144;2023-07-20T07:49:22;100929.63;;;27.38;80.02
75886;BME280;64561;44.018;10.144;2023-07-20T07:51:50;100926.75;;;27.43;79.99
75886;BME280;64561;44.018;10.144;2023-07-20T07:54:17;100932.03;;;27.43;80.01
75886;BME280;64561;44.018;10.144;2023-07-20T07:56:44;100942.13;;;27.52;79.77
75886;BME280;64561;44.018;10.144;2023-07-20T07:59:11;100935.16;;;27.51;80.22
75886;BME280;64561;44.018;10.144;2023-07-20T08:01:39;100941.97;;;27.55;81.03
75886;BME280;64561;44.018;10.144;2023-07-20T08:04:06;100941.78;;;27.59;81.95
75886;BME280;64561;44.018;10.144;2023-07-20T08:06:33;100939.78;;;27.65;80.78
75886;BME280;64561;44.018;10.144;2023-07-20T08:09:00;100941.44;;;27.67;79.88
75886;BME280;64561;44.018;10.144;2023-07-20T08:11:30;100931.13;;;27.63;nan
75886;BME280;64561;44.018;10.144;2023-07-20T08:13:57;100944.06;;;27.67;79.68
75886;BME280;64561;44.018;10.144;2023-07-20T08:16:25;100951.94;;;27.67;80.26
75886;BME280;64561;44.018;10.144;2023-07-20T08:18:53;100952.88;;;27.66;80.16
75886;BME280;64561;44.018;10.144;2023-07-20T08:21:20;100952.16;;;27.63;80.38
75886;BME280;64561;44.018;10.144;2023-07-20T08:23:47;100958.19;;;27.65;78.77
75886;BME280;64561;44.018;10.144;2023-07-20T08:26:15;100952.94;;;27.65;78.69
75886;BME280;64561;44.018;10.144;2023-07-20T08:28:44;100959.91;;;27.66;79.72
75886;BME280;64561;44.018;10.144;2023-07-20T08:31:11;100963.25;;;27.69;80.13
75886;BME280;64561;44.018;10.144;2023-07-20T08:33:38;100958.84;;;27.70;80.30
75886;BME280;64561;44.018;10.144;2023-07-20T08:36:06;100958.41;;;27.80;79.31
75886;BME280;64561;44.018;10.144;2023-07-20T08:38:38;100959.31;;;27.79;79.03
75886;BME280;64561;44.018;10.144;2023-07-20T08:41:05;100959.25;;;27.81;78.56
75886;BME280;64561;44.018;10.144;2023-07-20T08:43:33;100947.78;;;27.82;78.74
75886;BME280;64561;44.018;10.144;2023-07-20T08:46:03;100943.38;;;27.83;78.79
75886;BME280;64561;44.018;10.144;2023-07-20T08:48:31;100943.19;;;27.87;78.29
75886;BME280;64561;44.018;10.144;2023-07-20T08:50:59;100946.22;;;27.97;77.24
75886;BME280;64561;44.018;10.144;2023-07-20T08:53:27;100939.63;;;28.07;77.68
75886;BME280;64561;44.018;10.144;2023-07-20T08:55:56;100947.53;;;28.24;77.61
75886;BME280;64561;44.018;10.144;2023-07-20T08:58:25;100951.19;;;28.41;77.93
75886;BME280;64561;44.018;10.144;2023-07-20T09:00:54;100938.22;;;28.55;76.68
75886;BME280;64561;44.018;10.144;2023-07-20T09:03:21;100945.72;;;28.63;76.39
75886;BME280;64561;44.018;10.144;2023-07-20T09:05:49;100943.72;;;28.68;74.07
75886;BME280;64561;44.018;10.144;2023-07-20T09:08:16;100946.94;;;28.73;75.41
75886;BME280;64561;44.018;10.144;2023-07-20T09:10:44;100949.38;;;28.78;75.89
75886;BME280;64561;44.018;10.144;2023-07-20T09:13:14;100951.00;;;28.80;75.04
75886;BME280;64561;44.018;10.144;2023-07-20T09:15:46;100955.88;;;28.88;75.55
75886;BME280;64561;44.018;10.144;2023-07-20T09:18:29;100948.84;;;28.88;73.02
75886;BME280;64561;44.018;10.144;2023-07-20T09:21:04;100949.69;;;28.89;74.38
75886;BME280;64561;44.018;10.144;2023-07-20T09:23:37;100951.69;;;29.01;74.32
75886;BME280;64561;44.018;10.144;2023-07-20T09:26:13;100946.75;;;29.12;72.68
75886;BME280;64561;44.018;10.144;2023-07-20T09:28:43;100943.81;;;29.19;72.81
75886;BME280;64561;44.018;10.144;2023-07-20T09:31:19;100949.84;;;29.21;72.50
75886;BME280;64561;44.018;10.144;2023-07-20T09:33:47;100950.16;;;29.14;71.98
75886;BME280;64561;44.018;10.144;2023-07-20T09:36:17;100947.84;;;29.08;71.88
75886;BME280;64561;44.018;10.144;2023-07-20T09:39:05;100956.19;;;28.99;73.14
75886;BME280;64561;44.018;10.144;2023-07-20T09:41:42;100958.34;;;28.91;72.91
75886;BME280;64561;44.018;10.144;2023-07-20T09:44:15;100960.59;;;28.81;72.83
75886;BME280;64561;44.018;10.144;2023-07-20T09:46:47;100945.88;;;28.77;72.76
75886;BME280;64561;44.018;10.144;2023-07-20T09:49:18;100949.06;;;28.84;72.80
75886;BME280;64561;44.018;10.144;2023-07-20T09:51:48;100955.00;;;29.06;72.97
75886;BME280;64561;44.018;10.144;2023-07-20T09:54:16;100949.56;;;29.09;72.27
75886;BME280;64561;44.018;10.144;2023-07-20T09:56:45;100944.81;;;29.16;73.34
75886;BME280;64561;44.018;10.144;2023-07-20T09:59:12;100938.28;;;29.23;72.58
75886;BME280;64561;44.018;10.144;2023-07-20T10:01:41;100946.66;;;29.31;72.26
75886;BME280;64561;44.018;10.144;2023-07-20T10:04:11;100942.22;;;29.32;70.75
75886;BME280;64561;44.018;10.144;2023-07-20T10:06:42;100946.31;;;29.37;71.19
75886;BME280;64561;44.018;10.144;2023-07-20T10:09:10;100930.72;;;29.33;70.77
75886;BME280;64561;44.018;10.144;2023-07-20T10:11:43;100932.53;;;29.32;71.62
75886;BME280;64561;44.018;10.144;2023-07-20T10:14:12;100938.31;;;29.39;71.11
75886;BME280;64561;44.018;10.144;2023-07-20T10:16:46;100929.56;;;29.38;70.55
75886;BME280;64561;44.018;10.144;2023-07-20T10:19:22;100922.97;;;29.30;70.24
75886;BME280;64561;44.018;10.144;2023-07-20T10:22:08;100925.22;;;29.37;70.17
75886;BME280;64561;44.018;10.144;2023-07-20T10:24:39;100927.78;;;29.39;69.45
75886;BME280;64561;44.018;10.144;2023-07-20T10:27:07;100928.53;;;29.41;70.10
75886;BME280;64561;44.018;10.144;2023-07-20T10:29:34;100921.09;;;29.49;68.73
75886;BME280;64561;44.018;10.144;2023-07-20T10:32:01;100929.03;;;29.65;69.22
75886;BME280;64561;44.018;10.144;2023-07-20T10:34:29;100923.38;;;29.73;68.77
75886;BME280;64561;44.018;10.144;2023-07-20T10:36:57;100919.28;;;29.83;68.89
75886;BME280;64561;44.018;10.144;2023-07-20T10:39:25;100913.75;;;29.88;68.17
75886;BME280;64561;44.018;10.144;2023-07-20T10:42:01;100919.09;;;29.86;67.43
75886;BME280;64561;44.018;10.144;2023-07-20T10:44:30;100910.69;;;29.79;67.96
75886;BME280;64561;44.018;10.144;2023-07-20T10:47:02;100919.94;;;29.87;67.89
75886;BME280;64561;44.018;10.144;2023-07-20T10:49:32;100911.78;;;29.91;68.20
75886;BME280;64561;44.018;10.144;2023-07-20T10:52:04;100922.34;;;29.91;68.25
75886;BME280;64561;44.018;10.144;2023-07-20T10:54:33;100914.25;;;29.94;68.59
75886;BME280;64561;44.018;10.144;2023-07-20T10:59:50;100921.06;;;29.98;67.40
75886;BME280;64561;44.018;10.144;2023-07-20T11:02:18;100924.38;;;30.02;68.48
75886;BME280;64561;44.018;10.144;2023-07-20T11:04:47;100923.84;;;30.11;68.14
75886;BME280;64561;44.018;10.144;2023-07-20T11:07:17;100921.91;;;30.15;69.27
75886;BME280;64561;44.018;10.144;2023-07-20T11:09:45;100925.09;;;30.21;68.01
75886;BME280;64561;44.018;10.144;2023-07-20T11:12:17;100914.56;;;30.20;67.72
75886;BME280;64561;44.018;10.144;2023-07-20T11:14:57;100915.50;;;30.19;67.34
75886;BME280;64561;44.018;10.144;2023-07-20T11:17:29;100901.47;;;30.18;67.11
75886;BME280;64561;44.018;10.144;2023-07-20T11:19:59;100905.41;;;30.27;66.10
75886;BME280;64561;44.018;10.144;2023-07-20T11:22:31;100903.25;;;30.34;65.93
75886;BME280;64561;44.018;10.144;2023-07-20T11:24:58;100889.38;;;30.30;66.09
75886;BME280;64561;44.018;10.144;2023-07-20T11:27:26;100901.78;;;30.44;65.79
75886;BME280;64561;44.018;10.144;2023-07-20T11:29:54;100903.88;;;30.53;66.46
75886;BME280;64561;44.018;10.144;2023-07-20T11:32:21;100894.16;;;30.53;64.84
75886;BME280;64561;44.018;10.144;2023-07-20T11:34:49;100901.34;;;30.51;64.34
75886;BME280;64561;44.018;10.144;2023-07-20T11:37:17;100888.88;;;30.53;65.32
75886;BME280;64561;44.018;10.144;2023-07-20T11:39:46;100898.34;;;30.58;66.38
75886;BME280;64561;44.018;10.144;2023-07-20T11:42:14;100898.16;;;30.61;66.43
75886;BME280;64561;44.018;10.144;2023-07-20T11:44:45;100887.47;;;30.62;64.52
75886;BME280;64561;44.018;10.144;2023-07-20T11:47:12;100889.03;;;30.66;64.11
75886;BME280;64561;44.018;10.144;2023-07-20T11:49:43;100887.69;;;30.73;66.49
75886;BME280;64561;44.018;10.144;2023-07-20T11:52:15;100886.94;;;30.71;65.90
75886;BME280;64561;44.018;10.144;2023-07-20T11:54:43;100880.44;;;30.77;65.71
75886;BME280;64561;44.018;10.144;2023-07-20T11:57:19;100882.41;;;30.73;66.02
75886;BME280;64561;44.018;10.144;2023-07-20T11:59:56;100879.69;;;30.75;64.46
75886;BME280;64561;44.018;10.144;2023-07-20T12:02:27;100887.63;;;30.75;66.36
75886;BME280;64561;44.018;10.144;2023-07-20T12:04:55;100873.31;;;30.79;63.72
75886;BME280;64561;44.018;10.144;2023-07-20T12:07:22;100872.34;;;30.80;63.47
75886;BME280;64561;44.018;10.144;2023-07-20T12:10:09;100872.75;;;30.88;62.37
75886;BME280;64561;44.018;10.144;2023-07-20T12:12:42;100869.84;;;30.93;64.26
75886;BME280;64561;44.018;10.144;2023-07-20T12:17:52;100862.47;;;30.98;64.40
75886;BME280;64561;44.018;10.144;2023-07-20T12:22:57;100855.19;;;31.02;63.01
75886;BME280;64561;44.018;10.144;2023-07-20T12:25:36;100855.47;;;30.97;64.94
75886;BME280;64561;44.018;10.144;2023-07-20T12:28:08;100852.66;;;31.00;64.71
75886;BME280;64561;44.018;10.144;2023-07-20T12:30:40;100866.06;;;31.11;64.62
75886;BME280;64561;44.018;10.144;2023-07-20T12:33:08;100857.06;;;31.14;62.21
75886;BME280;64561;44.018;10.144;2023-07-20T12:35:35;100852.94;;;31.10;61.59
75886;BME280;64561;44.018;10.144;2023-07-20T12:38:02;100853.03;;;31.08;59.21
75886;BME280;64561;44.018;10.144;2023-07-20T12:40:30;100861.63;;;31.12;62.18
75886;BME280;64561;44.018;10.144;2023-07-20T12:42:57;100858.13;;;31.11;63.73
75886;BME280;64561;44.018;10.144;2023-07-20T12:45:25;100854.72;;;31.09;62.34
75886;BME280;64561;44.018;10.144;2023-07-20T12:47:52;100850.84;;;31.15;63.68
75886;BME280;64561;44.018;10.144;2023-07-20T12:50:19;100846.34;;;31.17;61.42
75886;BME280;64561;44.018;10.144;2023-07-20T12:52:46;100845.66;;;31.13;60.98
75886;BME280;64561;44.018;10.144;2023-07-20T12:55:13;100841.13;;;31.15;62.00
75886;BME280;64561;44.018;10.144;2023-07-20T12:57:41;100842.53;;;31.21;61.21
75886;BME280;64561;44.018;10.144;2023-07-20T13:00:10;100843.09;;;31.26;62.90
75886;BME280;64561;44.018;10.144;2023-07-20T13:02:38;100844.88;;;31.26;64.25
75886;BME280;64561;44.018;10.144;2023-07-20T13:05:06;100850.50;;;31.35;64.41
75886;BME280;64561;44.018;10.144;2023-07-20T13:07:35;100853.19;;;31.34;65.35
75886;BME280;64561;44.018;10.144;2023-07-20T13:10:06;100846.41;;;31.30;62.30
75886;BME280;64561;44.018;10.144;2023-07-20T13:12:36;100847.63;;;31.24;64.55